Time;durP1;ratioP1;P1;durP2;ratioP2;P2;SDS_P1;SDS_P2;PMS_P1;PMS_P2;Temp;Humidity;BMP_temperature;BMP_pressure;BME280_temperature;BME280_humidity;BME280_pressure;Samples;Min_cycle;Max_cycle;Signal;HPM_P1;HPM_P2
2022/06/22 00:01:05;;;;;;;2.58;2.38;;;17.80;64.00;;;;;;5022114;28;20030;-59
2022/06/22 00:03:33;;;;;;;2.65;2.45;;;17.80;63.70;;;;;;5027227;28;20029;-59
2022/06/22 00:05:59;;;;;;;2.75;2.40;;;17.90;63.60;;;;;;5024534;28;20029;-58
2022/06/22 00:08:30;;;;;;;2.40;2.20;;;17.90;63.60;;;;;;5032733;28;20536;-59
2022/06/22 00:11:11;;;;;;;2.85;2.65;;;18.00;63.40;;;;;;5025142;28;20083;-59
2022/06/22 00:13:37;;;;;;;2.45;2.30;;;18.00;63.60;;;;;;5027149;28;20045;-59
2022/06/22 00:16:13;;;;;;;2.70;2.50;;;18.00;63.90;;;;;;5017045;28;20112;-59
2022/06/22 00:18:48;;;;;;;2.67;2.47;;;17.90;64.20;;;;;;5038659;28;20021;-59
2022/06/22 00:21:14;;;;;;;2.75;2.55;;;17.90;64.30;;;;;;5038495;28;20063;-59
2022/06/22 00:23:44;;;;;;;3.15;2.53;;;17.90;64.30;;;;;;5027478;28;20434;-59
2022/06/22 00:26:19;;;;;;;2.88;2.63;;;17.90;64.40;;;;;;5034586;28;20030;-59
2022/06/22 00:29:03;;;;;;;3.00;2.70;;;17.80;64.50;;;;;;5031874;28;20025;-59
2022/06/22 00:31:58;;;;;;;2.67;2.47;;;17.80;64.30;;;;;;5015019;28;20026;-58
2022/06/22 00:34:27;;;;;;;2.92;2.72;;;17.80;64.30;;;;;;5028549;28;20033;-59
2022/06/22 00:36:56;;;;;;;4.43;2.63;;;17.80;64.20;;;;;;5035132;28;20457;-59
2022/06/22 00:39:22;;;;;;;3.20;2.90;;;17.90;64.00;;;;;;5028749;28;20014;-58
2022/06/22 00:42:15;;;;;;;3.13;2.50;;;17.80;63.80;;;;;;5034803;28;20067;-58
2022/06/22 00:45:02;;;;;;;2.47;2.28;;;17.90;63.60;;;;;;5033399;28;20425;-59
2022/06/22 00:47:46;;;;;;;2.70;2.50;;;18.00;63.60;;;;;;5029179;28;20029;-59
2022/06/22 00:50:28;;;;;;;3.38;2.80;;;18.00;63.30;;;;;;5024090;28;20050;-58
2022/06/22 00:52:54;;;;;;;;;;;18.00;63.10;;;;;;5034680;28;20389;-58
2022/06/22 00:55:32;;;;;;;3.17;2.75;;;18.00;63.20;;;;;;5033642;28;19909;-59
2022/06/22 00:58:04;;;;;;;2.58;2.40;;;17.90;63.20;;;;;;5032789;28;20396;-59
2022/06/22 01:00:34;;;;;;;3.00;2.40;;;17.90;63.20;;;;;;5017400;28;20686;-59
2022/06/22 01:03:14;;;;;;;2.55;2.22;;;17.90;63.50;;;;;;5023829;28;20052;-59
2022/06/22 01:05:46;;;;;;;2.80;2.60;;;17.80;63.40;;;;;;5035585;28;20040;-59
2022/06/22 01:08:22;;;;;;;2.58;2.38;;;17.80;63.50;;;;;;5039900;28;20030;-59
2022/06/22 01:12:16;;;;;;;2.72;2.50;;;17.80;63.40;;;;;;5031213;28;20026;-59
2022/06/22 01:14:04;;;;;;;2.70;2.50;;;17.80;63.10;;;;;;5016504;28;20033;-59
2022/06/22 01:16:36;;;;;;;2.70;2.50;;;17.80;63.30;;;;;;5030738;28;20417;-59
2022/06/22 01:19:17;;;;;;;2.58;2.40;;;17.80;63.50;;;;;;5034297;28;20104;-59
2022/06/22 01:21:46;;;;;;;3.37;2.33;;;17.80;63.30;;;;;;5021187;28;20104;-58
2022/06/22 01:24:57;;;;;;;2.80;2.60;;;17.80;63.20;;;;;;5033021;28;20037;-56
2022/06/22 01:27:39;;;;;;;2.53;2.35;;;17.80;63.20;;;;;;5032694;28;20041;-58
2022/06/22 01:30:31;;;;;;;2.65;2.45;;;17.80;63.40;;;;;;5023203;28;20026;-59
2022/06/22 01:32:58;;;;;;;2.58;2.38;;;17.70;63.40;;;;;;5026510;28;20057;-59
2022/06/22 01:35:31;;;;;;;3.03;2.72;;;17.70;63.50;;;;;;5027183;28;20038;-59
2022/06/22 01:37:57;;;;;;;3.00;2.67;;;17.60;63.50;;;;;;5023559;28;20022;-59
2022/06/22 01:40:25;;;;;;;3.25;2.65;;;17.60;63.50;;;;;;5026376;28;20026;-59
2022/06/22 01:43:15;;;;;;;2.85;2.55;;;17.60;63.80;;;;;;5026591;28;20025;-59
2022/06/22 01:45:45;;;;;;;3.20;2.83;;;17.60;63.90;;;;;;5023776;28;20432;-59
2022/06/22 01:48:35;;;;;;;2.85;2.65;;;17.50;63.90;;;;;;5032767;28;20014;-59
2022/06/22 01:51:09;;;;;;;2.88;2.55;;;17.50;63.90;;;;;;5022826;28;20451;-59
2022/06/22 01:54:03;;;;;;;2.90;2.70;;;17.50;63.80;;;;;;5031990;28;20021;-58
2022/06/22 01:56:37;;;;;;;3.00;2.70;;;17.50;63.60;;;;;;5032967;28;20034;-58
2022/06/22 01:59:24;;;;;;;3.83;3.00;;;17.50;63.40;;;;;;5027561;28;20492;-59
2022/06/22 02:01:53;;;;;;;3.00;2.70;;;17.50;63.30;;;;;;5013967;28;20026;-59
2022/06/22 02:04:40;;;;;;;3.30;3.00;;;17.50;63.40;;;;;;5023648;28;20478;-59
2022/06/22 02:07:44;;;;;;;3.50;2.67;;;17.50;63.30;;;;;;5030195;28;20124;-59
2022/06/22 02:10:29;;;;;;;2.97;2.67;;;17.50;63.30;;;;;;5027567;28;20051;-58
2022/06/22 02:13:31;;;;;;;3.10;2.80;;;17.50;63.20;;;;;;5032744;28;20105;-59
2022/06/22 02:16:31;;;;;;;4.18;3.25;;;17.60;63.30;;;;;;5028567;28;20030;-59
2022/06/22 02:18:57;;;;;;;5.47;3.20;;;17.60;63.30;;;;;;5033021;28;20412;-59
2022/06/22 02:21:43;;;;;;;3.50;3.20;;;17.60;63.30;;;;;;5025701;28;20084;-58
2022/06/22 02:24:19;;;;;;;4.75;3.20;;;17.60;63.30;;;;;;5028907;28;20608;-59
2022/06/22 02:26:45;;;;;;;7.07;3.88;;;17.60;63.30;;;;;;5033125;28;20026;-59
2022/06/22 02:29:13;;;;;;;3.22;2.92;;;17.60;63.30;;;;;;5016313;28;20026;-59
2022/06/22 02:31:40;;;;;;;2.90;2.70;;;17.50;63.10;;;;;;5021008;28;20032;-59
2022/06/22 02:34:05;;;;;;;3.53;3.00;;;17.50;63.20;;;;;;5025198;28;20083;-59
2022/06/22 02:36:36;;;;;;;3.03;2.75;;;17.40;63.30;;;;;;5032538;28;20057;-59
2022/06/22 02:39:04;;;;;;;2.78;2.58;;;17.40;63.50;;;;;;5031658;28;20042;-59
2022/06/22 02:44:30;;;;;;;3.13;2.83;;;17.40;63.80;;;;;;5024902;28;20032;-59
2022/06/22 02:47:17;;;;;;;2.83;2.60;;;17.50;63.80;;;;;;5023020;28;20033;-57
2022/06/22 02:50:06;;;;;;;3.00;2.70;;;17.50;63.60;;;;;;5031455;28;20032;-59
2022/06/22 02:52:44;;;;;;;2.80;2.60;;;17.60;63.40;;;;;;5028434;28;20528;-59
2022/06/22 02:55:13;;;;;;;2.60;2.40;;;17.70;63.40;;;;;;5026055;28;20092;-58
2022/06/22 02:57:52;;;;;;;3.63;2.90;;;17.80;63.20;;;;;;5030491;28;20592;-58
2022/06/22 03:00:29;;;;;;;3.47;2.90;;;17.90;63.00;;;;;;5028058;28;20076;-59
2022/06/22 03:03:08;;;;;;;3.22;2.67;;;17.90;62.80;;;;;;5029650;28;20025;-59
2022/06/22 03:05:35;;;;;;;2.72;2.50;;;18.00;62.80;;;;;;5016294;28;20029;-58
2022/06/22 03:08:03;;;;;;;2.70;2.50;;;18.00;62.70;;;;;;5029780;28;20024;-58
2022/06/22 03:10:46;;;;;;;2.75;2.50;;;18.10;62.50;;;;;;5032309;28;20079;-59
2022/06/22 03:13:23;;;;;;;3.28;2.80;;;18.00;62.40;;;;;;5023637;28;20026;-59
2022/06/22 03:15:49;;;;;;;2.60;2.40;;;18.10;62.70;;;;;;5026476;28;20028;-59
2022/06/22 03:18:23;;;;;;;3.08;2.78;;;18.10;62.70;;;;;;5028360;28;20402;-59
2022/06/22 03:21:03;;;;;;;2.40;2.30;;;18.10;62.90;;;;;;5038205;28;20072;-59
2022/06/22 03:23:45;;;;;;;3.15;2.85;;;18.10;62.80;;;;;;5027204;28;20470;-59
2022/06/22 03:26:14;;;;;;;3.72;2.67;;;18.10;62.60;;;;;;5027743;28;20064;-59
2022/06/22 03:28:45;;;;;;;2.47;2.28;;;18.10;62.30;;;;;;5030663;28;20028;-59
2022/06/22 03:31:20;;;;;;;4.65;2.60;;;18.20;62.20;;;;;;5016938;28;20017;-58
2022/06/22 03:33:51;;;;;;;2.60;2.40;;;18.30;62.00;;;;;;5020175;28;20038;-59
2022/06/22 03:36:25;;;;;;;2.83;2.63;;;18.40;61.70;;;;;;5016479;28;20030;-59
2022/06/22 03:38:57;;;;;;;3.35;2.80;;;18.50;61.70;;;;;;5025731;28;20057;-56
2022/06/22 03:41:27;;;;;;;2.70;2.50;;;18.60;61.80;;;;;;5027092;28;20041;-56
2022/06/22 03:44:05;;;;;;;4.00;2.67;;;18.60;61.70;;;;;;5035592;28;20026;-56
2022/06/22 03:46:44;;;;;;;3.08;2.65;;;18.60;61.60;;;;;;5023641;28;20061;-56
2022/06/22 03:49:29;;;;;;;2.80;2.60;;;18.70;61.80;;;;;;5035786;28;20473;-56
2022/06/22 03:52:14;;;;;;;2.53;2.33;;;18.70;61.70;;;;;;5032047;28;20464;-56
2022/06/22 03:54:45;;;;;;;2.85;2.65;;;18.70;61.70;;;;;;5024699;28;20026;-56
2022/06/22 03:57:16;;;;;;;4.28;2.78;;;18.70;61.50;;;;;;5028474;28;20041;-56
2022/06/22 03:59:45;;;;;;;2.95;2.65;;;18.70;61.70;;;;;;5024159;28;20032;-56
2022/06/22 04:02:11;;;;;;;2.75;2.55;;;18.60;61.70;;;;;;5028681;28;20041;-56
2022/06/22 04:04:37;;;;;;;3.88;2.70;;;18.70;61.70;;;;;;5019464;28;20036;-56
2022/06/22 04:07:03;;;;;;;3.00;2.70;;;18.60;61.70;;;;;;5029031;28;20028;-56
2022/06/22 04:09:30;;;;;;;2.65;2.45;;;18.60;61.90;;;;;;5029910;28;20033;-56
2022/06/22 04:12:10;;;;;;;3.13;2.83;;;18.60;61.90;;;;;;5035249;28;20025;-56
2022/06/22 04:14:49;;;;;;;3.45;2.92;;;18.60;62.00;;;;;;5033710;28;20037;-56
2022/06/22 04:17:35;;;;;;;3.53;2.78;;;18.60;62.10;;;;;;5035544;28;20112;-56
2022/06/22 04:20:15;;;;;;;3.25;2.95;;;18.60;62.10;;;;;;5035315;28;20030;-56
2022/06/22 04:22:44;;;;;;;2.72;2.53;;;18.60;62.00;;;;;;5035431;28;20029;-58
2022/06/22 04:25:35;;;;;;;2.17;2.03;;;18.50;62.10;;;;;;5030051;28;20113;-59
2022/06/22 04:28:05;;;;;;;3.15;2.60;;;18.50;62.10;;;;;;5026763;28;20060;-59
2022/06/22 04:30:35;;;;;;;3.70;2.55;;;18.50;62.20;;;;;;5016426;28;20014;-59
2022/06/22 04:33:06;;;;;;;2.80;2.60;;;18.50;62.10;;;;;;5028382;28;20028;-58
2022/06/22 04:35:48;;;;;;;4.03;2.60;;;18.50;62.40;;;;;;5034928;28;20075;-59
2022/06/22 04:38:13;;;;;;;;;;;18.50;62.30;;;;;;5022947;28;20064;-59
2022/06/22 04:40:52;;;;;;;2.38;2.20;;;18.50;62.20;;;;;;5035042;28;19937;-59
2022/06/22 04:43:18;;;;;;;3.15;2.80;;;18.50;62.20;;;;;;5025365;28;20029;-59
2022/06/22 04:45:46;;;;;;;2.38;2.17;;;18.50;62.30;;;;;;5025971;28;20034;-59
2022/06/22 04:48:20;;;;;;;2.80;2.55;;;18.50;62.30;;;;;;5034720;28;20032;-59
2022/06/22 04:50:50;;;;;;;2.80;2.35;;;18.50;62.30;;;;;;5035672;28;20485;-59
2022/06/22 04:53:38;;;;;;;2.78;2.58;;;18.50;62.30;;;;;;5043031;28;20026;-58
2022/06/22 04:56:09;;;;;;;3.22;2.65;;;18.50;62.30;;;;;;5022290;28;20024;-59
2022/06/22 04:58:47;;;;;;;2.85;2.58;;;18.50;62.50;;;;;;5022276;28;20030;-59
2022/06/22 05:01:19;;;;;;;3.22;2.80;;;18.60;62.50;;;;;;5021185;28;20056;-59
2022/06/22 05:03:45;;;;;;;2.75;2.50;;;18.60;62.50;;;;;;5032698;28;20037;-59
2022/06/22 05:06:21;;;;;;;3.08;2.63;;;18.70;62.50;;;;;;5027449;28;20104;-59
2022/06/22 05:09:01;;;;;;;3.38;2.67;;;18.80;62.30;;;;;;5034644;28;20469;-58
2022/06/22 05:11:36;;;;;;;2.80;2.57;;;19.00;62.30;;;;;;5021321;28;20126;-59
2022/06/22 05:14:09;;;;;;;4.32;2.63;;;19.00;62.10;;;;;;5031998;28;20072;-56
2022/06/22 05:16:35;;;;;;;2.70;2.50;;;19.10;62.10;;;;;;5029553;28;20052;-58
2022/06/22 05:19:01;;;;;;;2.83;2.55;;;19.20;61.90;;;;;;5041453;28;20017;-57
2022/06/22 05:21:43;;;;;;;2.55;2.35;;;19.20;61.70;;;;;;5038492;28;20098;-58
2022/06/22 05:24:35;;;;;;;2.30;2.20;;;19.20;61.90;;;;;;5024229;28;20402;-58
2022/06/22 05:27:07;;;;;;;3.03;2.60;;;19.20;61.90;;;;;;5024557;28;20025;-58
2022/06/22 05:29:37;;;;;;;;;;;19.20;62.10;;;;;;5023375;28;20021;-58
2022/06/22 05:32:08;;;;;;;2.70;2.50;;;19.20;62.40;;;;;;5018719;28;20381;-57
2022/06/22 05:34:37;;;;;;;2.78;2.58;;;19.20;62.60;;;;;;5027192;28;20029;-58
2022/06/22 05:37:16;;;;;;;3.30;2.60;;;19.20;62.90;;;;;;5019238;28;20045;-57
2022/06/22 05:39:43;;;;;;;3.35;2.53;;;19.30;63.20;;;;;;5032675;28;20029;-58
2022/06/22 05:42:10;;;;;;;2.40;2.20;;;19.30;63.10;;;;;;5019740;28;20034;-58
2022/06/22 05:44:37;;;;;;;2.63;2.42;;;19.40;63.20;;;;;;5021174;28;20493;-58
2022/06/22 05:47:03;;;;;;;2.75;2.42;;;19.40;63.30;;;;;;5018078;28;20042;-57
2022/06/22 05:49:35;;;;;;;2.40;2.15;;;19.50;63.30;;;;;;5014562;28;20076;-57
2022/06/22 05:52:15;;;;;;;3.90;2.53;;;19.50;63.20;;;;;;5015808;28;20048;-57
2022/06/22 05:54:54;;;;;;;2.33;2.13;;;19.60;63.30;;;;;;5013183;28;20087;-58
2022/06/22 05:57:40;;;;;;;2.38;2.17;;;19.60;63.30;;;;;;5017876;28;20438;-58
2022/06/22 06:00:17;;;;;;;1.90;1.80;;;19.60;63.20;;;;;;5014454;28;20030;-58
2022/06/22 06:02:52;;;;;;;2.13;1.80;;;19.60;62.90;;;;;;5023224;28;20600;-57
2022/06/22 06:05:27;;;;;;;1.77;1.67;;;19.70;63.30;;;;;;5022724;28;20025;-57
2022/06/22 06:07:57;;;;;;;1.80;1.70;;;19.70;63.30;;;;;;5015802;28;20033;-58
2022/06/22 06:10:24;;;;;;;1.35;1.30;;;19.80;63.30;;;;;;5010681;28;20030;-58
2022/06/22 06:13:02;;;;;;;1.50;1.40;;;19.80;63.00;;;;;;5018852;28;20021;-58
2022/06/22 06:15:39;;;;;;;1.40;1.30;;;19.90;63.00;;;;;;5015413;28;20017;-57
2022/06/22 06:18:09;;;;;;;1.38;1.20;;;19.90;62.80;;;;;;5026293;28;20025;-58
2022/06/22 06:20:41;;;;;;;1.08;0.98;;;19.90;62.80;;;;;;5019772;28;20029;-58
2022/06/22 06:23:14;;;;;;;0.95;0.95;;;19.90;62.50;;;;;;5012558;28;20044;-58
2022/06/22 06:28:55;;;;;;;1.45;1.30;;;19.60;63.20;;;;;;5020420;28;20095;-57
2022/06/22 06:31:34;;;;;;;1.20;1.10;;;19.30;63.80;;;;;;5024152;28;20501;-57
2022/06/22 06:34:04;;;;;;;1.25;1.25;;;19.20;64.10;;;;;;5023643;28;20029;-57
2022/06/22 06:36:39;;;;;;;1.85;1.75;;;19.10;64.50;;;;;;5013853;28;20153;-58
2022/06/22 06:39:15;;;;;;;1.52;1.40;;;19.00;65.10;;;;;;5014378;28;20042;-57
2022/06/22 06:42:03;;;;;;;1.98;1.77;;;19.00;65.40;;;;;;5012939;28;20036;-57
2022/06/22 06:44:41;;;;;;;2.00;1.90;;;19.00;65.80;;;;;;5019724;28;20033;-58
2022/06/22 06:47:15;;;;;;;1.70;1.60;;;19.00;65.90;;;;;;5008072;28;20060;-58
2022/06/22 06:50:25;;;;;;;1.42;1.33;;;19.00;66.20;;;;;;5016017;28;20037;-59
2022/06/22 06:53:04;;;;;;;1.70;1.60;;;19.00;66.30;;;;;;5014104;28;20164;-59
2022/06/22 06:55:50;;;;;;;2.65;1.80;;;19.10;66.40;;;;;;5016017;28;20013;-57
2022/06/22 06:58:25;;;;;;;1.80;1.70;;;19.20;66.50;;;;;;5011980;28;20025;-57
2022/06/22 07:00:51;;;;;;;1.65;1.55;;;19.10;66.50;;;;;;5008660;28;20520;-57
2022/06/22 07:03:38;;;;;;;1.38;1.27;;;19.20;66.70;;;;;;5001463;28;20026;-56
2022/06/22 07:06:04;;;;;;;1.52;1.42;;;19.20;66.60;;;;;;5010215;28;20038;-58
2022/06/22 07:09:07;;;;;;;2.67;1.60;;;19.20;66.60;;;;;;5011599;28;20022;-58
2022/06/22 07:11:42;;;;;;;1.50;1.40;;;19.20;66.80;;;;;;5015039;28;20140;-58
2022/06/22 07:14:26;;;;;;;1.15;1.10;;;19.20;66.70;;;;;;5015218;28;20049;-58
2022/06/22 07:16:57;;;;;;;1.30;1.30;;;19.20;66.80;;;;;;5019013;28;20121;-58
2022/06/22 07:19:50;;;;;;;1.67;1.58;;;19.20;67.10;;;;;;5011510;28;20037;-57
2022/06/22 07:22:38;;;;;;;1.45;1.35;;;19.30;67.10;;;;;;5017608;28;20632;-58
2022/06/22 07:25:04;;;;;;;2.22;1.67;;;19.30;66.90;;;;;;5023548;28;20033;-57
2022/06/22 07:27:50;;;;;;;2.25;1.63;;;19.30;67.10;;;;;;5018584;28;20079;-58
2022/06/22 07:30:21;;;;;;;2.30;1.70;;;19.30;67.10;;;;;;5023891;28;20540;-57
2022/06/22 07:33:07;;;;;;;1.40;1.30;;;19.40;67.40;;;;;;5020394;28;20087;-57
2022/06/22 07:36:01;;;;;;;2.28;1.77;;;19.40;67.10;;;;;;5014615;28;20021;-57
2022/06/22 07:38:36;;;;;;;1.77;1.67;;;19.40;67.30;;;;;;5011838;28;20026;-57
2022/06/22 07:44:26;;;;;;;2.75;1.40;;;19.30;67.60;;;;;;5013275;28;20041;-58
2022/06/22 07:46:57;;;;;;;1.40;1.30;;;19.20;67.70;;;;;;5014930;28;20029;-58
2022/06/22 07:49:39;;;;;;;;;;;19.20;67.90;;;;;;5015198;28;20034;-57
2022/06/22 07:52:08;;;;;;;1.67;1.58;;;19.20;68.20;;;;;;5012909;28;21076;-56
2022/06/22 07:54:36;;;;;;;1.42;1.33;;;19.10;68.30;;;;;;5008897;28;20029;-57
2022/06/22 07:57:17;;;;;;;1.70;1.60;;;19.20;68.70;;;;;;5007970;28;20126;-57
2022/06/22 07:59:50;;;;;;;2.08;1.65;;;19.20;68.70;;;;;;5001834;28;20037;-58
2022/06/22 08:02:19;;;;;;;1.63;1.52;;;19.20;68.50;;;;;;5002676;28;20076;-57
2022/06/22 08:04:56;;;;;;;1.83;1.73;;;19.30;68.70;;;;;;5004816;28;20083;-57
2022/06/22 08:07:39;;;;;;;2.47;2.28;;;19.40;68.80;;;;;;5008710;28;20757;-57
2022/06/22 08:10:12;;;;;;;1.33;1.33;;;19.50;69.00;;;;;;5017845;28;22194;-57
2022/06/22 08:13:01;;;;;;;2.33;1.67;;;19.60;68.80;;;;;;5015638;28;20030;-57
2022/06/22 08:15:30;;;;;;;1.50;1.40;;;19.70;68.20;;;;;;5014188;28;20060;-57
2022/06/22 08:17:58;;;;;;;1.50;1.40;;;19.80;68.00;;;;;;5010130;28;20402;-57
2022/06/22 08:20:28;;;;;;;1.52;1.42;;;19.90;67.40;;;;;;5011027;28;20034;-58
2022/06/22 08:22:57;;;;;;;1.20;1.08;;;20.00;67.50;;;;;;5011694;28;20034;-58
2022/06/22 08:25:23;;;;;;;1.40;1.30;;;20.00;67.50;;;;;;5003357;28;20061;-58
2022/06/22 08:27:49;;;;;;;1.38;1.30;;;20.10;67.50;;;;;;5010815;28;20152;-58
2022/06/22 08:30:16;;;;;;;1.20;1.20;;;20.10;67.10;;;;;;5014891;28;20083;-58
2022/06/22 08:32:59;;;;;;;1.27;1.27;;;20.10;67.10;;;;;;5009321;28;20038;-58
2022/06/22 08:35:49;;;;;;;1.10;1.10;;;20.10;66.80;;;;;;5011635;28;20044;-58
2022/06/22 08:38:27;;;;;;;1.00;1.00;;;20.10;66.80;;;;;;5020425;28;20037;-58
2022/06/22 08:41:15;;;;;;;1.05;1.00;;;20.10;67.00;;;;;;5010353;28;20453;-57
2022/06/22 08:44:02;;;;;;;1.02;1.02;;;20.10;66.90;;;;;;5001802;28;20517;-59
2022/06/22 08:47:05;;;;;;;1.00;0.98;;;20.10;66.70;;;;;;5005387;28;20072;-58
2022/06/22 08:50:08;;;;;;;0.88;0.88;;;20.20;66.20;;;;;;5007076;28;20039;-58
2022/06/22 08:52:53;;;;;;;1.27;1.23;;;20.20;65.90;;;;;;4997503;28;20053;-58
2022/06/22 08:55:35;;;;;;;1.42;1.13;;;20.20;66.00;;;;;;5009085;28;20033;-58
2022/06/22 08:58:06;;;;;;;0.90;0.90;;;20.30;65.70;;;;;;5006974;28;20022;-58
2022/06/22 09:00:50;;;;;;;1.40;1.30;;;20.30;65.90;;;;;;5004122;28;20128;-58
2022/06/22 09:03:28;;;;;;;1.00;1.00;;;20.40;65.40;;;;;;5007932;28;20539;-57
2022/06/22 09:06:08;;;;;;;1.30;1.20;;;20.40;65.30;;;;;;5012884;28;20040;-59
2022/06/22 09:29:01;;;;;;;0.40;0.40;;;20.60;62.80;;;;;;4997058;28;20032;-58
2022/06/22 09:32:01;;;;;;;0.40;0.40;;;20.50;62.30;;;;;;4996481;28;21894;-58
2022/06/22 09:34:52;;;;;;;0.50;0.50;;;20.30;61.20;;;;;;4995187;28;20083;-57
2022/06/22 09:37:43;;;;;;;0.57;0.50;;;20.20;61.10;;;;;;5007752;28;20033;-57
2022/06/22 09:40:41;;;;;;;0.47;0.47;;;20.00;61.30;;;;;;5010553;28;20037;-58
2022/06/22 09:43:22;;;;;;;0.55;0.55;;;19.90;61.40;;;;;;5004476;28;20041;-58
2022/06/22 09:46:13;;;;;;;0.73;0.63;;;19.80;61.70;;;;;;5012281;28;20029;-58
2022/06/22 09:49:08;;;;;;;0.65;0.65;;;19.60;62.10;;;;;;5003122;28;24327;-59
2022/06/22 09:51:54;;;;;;;0.50;0.50;;;19.60;62.70;;;;;;5000189;28;20054;-59
2022/06/22 09:57:28;;;;;;;0.60;0.60;;;19.30;63.30;;;;;;4997377;28;22791;-58
2022/06/22 10:00:03;;;;;;;0.50;0.50;;;19.20;63.50;;;;;;5005771;28;20033;-57
2022/06/22 10:02:54;;;;;;;0.50;0.50;;;19.10;63.60;;;;;;5011561;28;20033;-58
2022/06/22 10:05:38;;;;;;;0.68;0.68;;;19.00;63.90;;;;;;5003607;28;20064;-58
2022/06/22 10:08:20;;;;;;;0.60;0.60;;;18.90;64.10;;;;;;5000793;28;20087;-58
2022/06/22 10:10:49;;;;;;;0.60;0.60;;;19.00;64.50;;;;;;5004301;28;20121;-59
2022/06/22 10:13:34;;;;;;;0.73;0.73;;;19.00;64.70;;;;;;5017518;28;20036;-58
2022/06/22 10:16:11;;;;;;;1.02;1.02;;;19.00;65.10;;;;;;5003212;28;20022;-59
2022/06/22 10:19:03;;;;;;;1.30;1.20;;;19.10;65.10;;;;;;5010749;28;20036;-59
2022/06/22 10:21:58;;;;;;;0.60;0.60;;;19.20;65.30;;;;;;5017617;28;20033;-59
2022/06/22 10:24:50;;;;;;;0.77;0.77;;;19.30;65.60;;;;;;5017427;28;20057;-59
2022/06/22 10:27:40;;;;;;;0.60;0.60;;;19.30;66.00;;;;;;5011156;28;20029;-59
2022/06/22 10:30:28;;;;;;;0.60;0.60;;;19.40;66.00;;;;;;5016520;28;20021;-59
2022/06/22 10:33:10;;;;;;;0.68;0.68;;;19.60;65.80;;;;;;5008550;28;20103;-58
2022/06/22 10:35:54;;;;;;;0.52;0.52;;;19.60;65.90;;;;;;5014751;28;20037;-59
2022/06/22 10:38:48;;;;;;;0.68;0.68;;;19.80;65.90;;;;;;5010377;28;20053;-59
2022/06/22 10:47:24;;;;;;;0.50;0.50;;;20.00;65.40;;;;;;5016412;28;20040;-59
2022/06/22 10:50:32;;;;;;;0.50;0.50;;;20.00;64.90;;;;;;5018456;28;20029;-59
2022/06/22 10:53:33;;;;;;;0.68;0.68;;;20.00;63.90;;;;;;5023557;28;20359;-59
2022/06/22 10:56:08;;;;;;;;;;;20.00;65.30;;;;;;5014450;28;20040;-59
2022/06/22 10:59:00;;;;;;;0.98;0.88;;;19.70;65.20;;;;;;5006478;28;19933;-57
2022/06/22 11:01:56;;;;;;;0.80;0.80;;;19.30;65.90;;;;;;5003711;28;20091;-58
2022/06/22 11:04:56;;;;;;;1.30;0.88;;;18.90;66.70;;;;;;5002292;28;20585;-58
2022/06/22 11:07:54;;;;;;;0.90;0.90;;;18.50;67.50;;;;;;5002564;28;20568;-59
2022/06/22 11:10:45;;;;;;;1.05;0.82;;;18.20;68.10;;;;;;5011558;28;20489;-59
2022/06/22 11:13:13;;;;;;;1.05;0.73;;;18.00;68.20;;;;;;5011301;28;20049;-57
2022/06/22 11:16:02;;;;;;;3.25;1.15;;;17.80;68.70;;;;;;5010734;28;20033;-58
2022/06/22 11:18:52;;;;;;;2.00;1.20;;;17.70;68.80;;;;;;5009898;28;20063;-57
2022/06/22 11:21:43;;;;;;;1.07;0.97;;;17.60;68.80;;;;;;5013435;28;20048;-57
2022/06/22 11:24:50;;;;;;;1.00;1.00;;;17.60;69.60;;;;;;5007160;28;20137;-57
2022/06/22 11:33:50;;;;;;;0.80;0.80;;;17.60;69.60;;;;;;5004156;28;21883;-57
2022/06/22 11:36:46;;;;;;;0.70;0.70;;;17.60;69.40;;;;;;5036019;28;20508;-57
2022/06/22 11:39:33;;;;;;;0.80;0.80;;;17.70;69.20;;;;;;5011457;28;20049;-57
2022/06/22 11:41:59;;;;;;;0.93;0.93;;;17.80;69.40;;;;;;5016579;28;20367;-56
2022/06/22 11:48:03;;;;;;;0.90;0.90;;;18.00;69.50;;;;;;4999996;28;20069;-57
2022/06/22 11:51:09;;;;;;;0.70;0.70;;;18.20;69.40;;;;;;5012405;28;20548;-57
2022/06/22 11:53:47;;;;;;;1.00;1.00;;;18.30;69.50;;;;;;5005819;28;20026;-57
2022/06/22 11:56:41;;;;;;;0.90;0.90;;;18.50;69.40;;;;;;4997341;28;20041;-57
2022/06/22 11:59:39;;;;;;;1.27;1.10;;;18.60;69.30;;;;;;4994611;28;20045;-58
2022/06/22 12:02:19;;;;;;;0.88;0.88;;;18.70;69.10;;;;;;5004337;28;20037;-58
2022/06/22 12:04:57;;;;;;;1.07;1.07;;;18.80;68.80;;;;;;5017186;28;20037;-59
2022/06/22 12:07:44;;;;;;;0.80;0.80;;;18.90;68.50;;;;;;5017321;28;20153;-59
2022/06/22 12:10:46;;;;;;;1.00;0.90;;;19.00;67.90;;;;;;5015150;28;20040;-56
2022/06/22 12:13:37;;;;;;;0.82;0.82;;;19.00;66.90;;;;;;5009924;28;20040;-56
2022/06/22 12:16:16;;;;;;;0.90;0.90;;;18.90;66.60;;;;;;5016580;28;20049;-58
2022/06/22 12:18:56;;;;;;;0.68;0.68;;;18.90;67.10;;;;;;5016073;28;20033;-59
2022/06/22 12:21:27;;;;;;;0.80;0.80;;;18.90;67.30;;;;;;5011507;28;20035;-59
2022/06/22 12:24:07;;;;;;;0.88;0.88;;;18.80;67.20;;;;;;5005025;28;20039;-57
2022/06/22 12:26:39;;;;;;;0.68;0.68;;;18.80;67.40;;;;;;5009482;28;20047;-57
2022/06/22 12:29:17;;;;;;;1.08;0.98;;;18.80;67.80;;;;;;5014985;28;20030;-57
2022/06/22 12:31:50;;;;;;;0.75;0.75;;;18.70;67.90;;;;;;5007627;28;20029;-57
2022/06/22 12:34:35;;;;;;;1.20;1.17;;;18.70;68.10;;;;;;5006196;28;20040;-56
2022/06/22 12:37:21;;;;;;;1.85;1.55;;;18.70;68.20;;;;;;5009120;28;20030;-57
2022/06/22 12:39:55;;;;;;;1.40;1.30;;;18.70;68.20;;;;;;5011722;28;20044;-57
2022/06/22 12:42:55;;;;;;;1.17;1.15;;;18.70;68.50;;;;;;5010513;28;22337;-57
2022/06/22 12:45:56;;;;;;;2.22;1.80;;;18.70;68.70;;;;;;5004537;28;20117;-57
2022/06/22 12:48:34;;;;;;;1.90;1.80;;;18.70;68.70;;;;;;5004401;28;20087;-56
2022/06/22 12:51:03;;;;;;;1.58;1.45;;;18.70;68.80;;;;;;5005202;28;20060;-58
2022/06/22 12:53:37;;;;;;;1.60;1.50;;;18.70;68.60;;;;;;5011293;28;20083;-58
2022/06/22 12:56:21;;;;;;;1.33;1.23;;;18.70;68.80;;;;;;5012649;28;20034;-58
2022/06/22 12:59:15;;;;;;;1.20;1.10;;;18.70;68.90;;;;;;5005909;28;20152;-57
2022/06/22 13:01:44;;;;;;;1.13;1.13;;;18.70;68.90;;;;;;5003307;28;20560;-57
2022/06/22 13:04:24;;;;;;;0.68;0.68;;;18.70;68.70;;;;;;5006920;28;20035;-56
2022/06/22 13:06:55;;;;;;;1.27;1.23;;;18.70;68.80;;;;;;5014371;28;20059;-58
2022/06/22 13:09:22;;;;;;;0.93;0.93;;;18.60;68.70;;;;;;5020302;28;20040;-57
2022/06/22 13:11:50;;;;;;;1.30;0.82;;;18.60;68.70;;;;;;5021681;28;20037;-57
2022/06/22 13:14:48;;;;;;;0.88;0.88;;;18.60;68.50;;;;;;5010628;28;20033;-56
2022/06/22 13:17:28;;;;;;;0.95;0.95;;;18.60;68.30;;;;;;5012826;28;20037;-56
2022/06/22 13:20:06;;;;;;;0.88;0.88;;;18.60;68.10;;;;;;5019832;28;20057;-57
2022/06/22 13:22:41;;;;;;;1.02;1.00;;;18.60;68.20;;;;;;5016770;28;20025;-56
2022/06/22 13:25:30;;;;;;;0.90;0.90;;;18.60;68.20;;;;;;5006860;28;20094;-56
2022/06/22 13:28:03;;;;;;;1.17;1.00;;;18.60;68.40;;;;;;5015320;28;20065;-56
2022/06/22 13:30:38;;;;;;;0.80;0.80;;;18.60;68.30;;;;;;5011818;28;20033;-57
2022/06/22 13:33:12;;;;;;;0.88;0.88;;;18.60;68.50;;;;;;5017528;28;20029;-56
2022/06/22 13:35:48;;;;;;;0.82;0.82;;;18.60;68.60;;;;;;5006549;28;20061;-57
2022/06/22 13:38:32;;;;;;;0.70;0.70;;;18.60;68.40;;;;;;5008543;28;20033;-57
2022/06/22 13:41:06;;;;;;;1.05;0.93;;;18.60;68.20;;;;;;5005499;28;20034;-55
2022/06/22 13:44:04;;;;;;;1.08;0.98;;;18.60;68.30;;;;;;5004293;28;20033;-54
2022/06/22 13:47:02;;;;;;;0.85;0.85;;;18.60;68.10;;;;;;5008639;28;20029;-55
2022/06/22 13:50:01;;;;;;;1.42;1.38;;;18.60;68.30;;;;;;5011673;28;20069;-56
2022/06/22 13:52:42;;;;;;;1.08;1.08;;;18.60;68.20;;;;;;5003981;28;20528;-56
2022/06/22 13:55:29;;;;;;;1.05;1.05;;;18.60;68.40;;;;;;5010104;28;20140;-57
2022/06/22 13:58:38;;;;;;;1.00;1.00;;;18.60;68.40;;;;;;5007172;28;22817;-57
2022/06/22 14:01:27;;;;;;;1.15;1.15;;;18.60;69.00;;;;;;5027824;28;20585;-57
2022/06/22 14:04:12;;;;;;;1.58;1.20;;;18.70;68.90;;;;;;5025274;28;20055;-56
2022/06/22 14:07:05;;;;;;;1.10;1.10;;;18.70;68.80;;;;;;5004626;28;20048;-56
2022/06/22 14:09:35;;;;;;;1.05;1.05;;;18.70;68.40;;;;;;5013599;28;20072;-57
2022/06/22 14:12:27;;;;;;;1.10;1.10;;;18.70;68.40;;;;;;5013037;28;23059;-57
2022/06/22 14:15:19;;;;;;;1.00;1.00;;;18.80;68.60;;;;;;5003760;28;20037;-56
2022/06/22 14:17:52;;;;;;;1.10;1.10;;;18.80;68.90;;;;;;4997235;28;20119;-57
2022/06/22 14:20:49;;;;;;;1.05;1.05;;;18.90;68.90;;;;;;5007481;28;20029;-57
2022/06/22 14:23:19;;;;;;;1.00;1.00;;;19.00;68.70;;;;;;5004351;28;20941;-57
2022/06/22 14:26:15;;;;;;;0.90;0.90;;;19.00;68.40;;;;;;5007910;28;20541;-56
2022/06/22 14:28:59;;;;;;;1.00;1.00;;;19.10;68.40;;;;;;5008183;28;20022;-57
2022/06/22 14:31:37;;;;;;;1.17;1.17;;;19.10;68.30;;;;;;5001370;28;20084;-55
2022/06/22 14:34:27;;;;;;;1.10;1.10;;;19.10;68.20;;;;;;5008575;28;20034;-56
2022/06/22 14:37:00;;;;;;;1.05;1.05;;;19.10;68.30;;;;;;5004422;28;20308;-55
2022/06/22 14:39:38;;;;;;;1.45;0.90;;;19.10;68.20;;;;;;5016931;28;20076;-57